createdAt,value
2023-05-05T00:01:09.264Z,57.33
2023-05-05T00:03:36.204Z,58.12
2023-05-05T00:06:03.481Z,57.81
2023-05-05T00:08:30.101Z,58.40
2023-05-05T00:10:57.766Z,58.57
2023-05-05T00:13:24.398Z,58.36
2023-05-05T00:15:53.552Z,58.56
2023-05-05T00:18:20.516Z,58.64
2023-05-05T00:20:47.625Z,59.50
2023-05-05T00:23:15.279Z,59.80
2023-05-05T00:25:42.057Z,60.34
2023-05-05T00:28:09.019Z,60.53
2023-05-05T00:30:37.182Z,61.06
2023-05-05T00:33:04.280Z,61.67
2023-05-05T00:35:30.991Z,62.68
2023-05-05T00:37:58.072Z,62.74
2023-05-05T00:40:25.299Z,63.15
2023-05-05T00:42:52.076Z,63.74
2023-05-05T00:45:20.086Z,63.77
2023-05-05T00:47:48.830Z,63.25
2023-05-05T00:50:25.699Z,64.27
2023-05-05T00:53:00.273Z,64.56
2023-05-05T00:55:28.611Z,66.25
2023-05-05T00:57:56.950Z,68.39
2023-05-05T01:00:23.886Z,69.97
2023-05-05T01:02:51.875Z,70.87
2023-05-05T01:05:19.978Z,72.16
2023-05-05T01:08:16.090Z,72.62
2023-05-05T01:10:48.142Z,73.59
2023-05-05T01:13:32.140Z,73.45
2023-05-05T01:16:27.314Z,73.42
2023-05-05T01:19:19.016Z,72.69
2023-05-05T01:21:49.998Z,75.52
2023-05-05T01:24:34.912Z,74.31
2023-05-05T01:27:38.795Z,73.74
2023-05-05T01:30:17.460Z,73.83
2023-05-05T01:33:08.287Z,74.38
2023-05-05T01:35:58.536Z,73.79
2023-05-05T01:38:46.660Z,74.39
2023-05-05T01:41:47.095Z,74.61
2023-05-05T01:44:36.827Z,74.03
2023-05-05T01:47:24.783Z,75.14
2023-05-05T01:49:52.608Z,78.16
2023-05-05T01:52:20.480Z,82.92
2023-05-05T01:54:49.785Z,86.31
2023-05-05T01:57:17.518Z,89.66
2023-05-05T01:59:43.998Z,90.65
2023-05-05T02:02:12.006Z,92.78
2023-05-05T02:04:43.447Z,93.72
2023-05-05T02:07:12.776Z,93.90
2023-05-05T02:09:40.641Z,93.41
2023-05-05T02:12:08.578Z,95.21
2023-05-05T02:14:36.875Z,95.48
2023-05-05T02:17:03.909Z,95.28
2023-05-05T02:19:39.587Z,96.05
2023-05-05T02:22:06.597Z,95.52
2023-05-05T02:24:33.643Z,94.74
2023-05-05T02:27:03.692Z,95.74
2023-05-05T02:29:35.659Z,97.30
2023-05-05T02:32:06.914Z,95.80
2023-05-05T02:34:39.763Z,96.11
2023-05-05T02:37:12.444Z,97.85
2023-05-05T02:39:45.126Z,99.06
2023-05-05T02:42:19.837Z,100.00
2023-05-05T02:44:51.867Z,100.00
2023-05-05T02:47:20.909Z,100.00
2023-05-05T02:49:48.848Z,99.41
2023-05-05T02:52:15.424Z,99.70
2023-05-05T02:54:43.663Z,100.00
2023-05-05T02:57:19.465Z,100.00
2023-05-05T03:00:05.610Z,100.00
2023-05-05T03:02:52.204Z,100.00
2023-05-05T03:05:22.601Z,100.00
2023-05-05T03:08:00.437Z,100.00
2023-05-05T03:10:31.169Z,100.00
2023-05-05T03:13:02.901Z,100.00
2023-05-05T03:15:52.127Z,99.36
2023-05-05T03:18:24.391Z,99.34
2023-05-05T03:20:58.286Z,100.00
2023-05-05T03:23:24.824Z,100.00
2023-05-05T03:25:56.809Z,100.00
2023-05-05T03:28:30.979Z,100.00
2023-05-05T03:31:01.108Z,100.00
2023-05-05T03:33:27.917Z,100.00
2023-05-05T03:35:57.463Z,100.00
2023-05-05T03:38:23.968Z,100.00
2023-05-05T03:40:50.893Z,100.00
2023-05-05T03:43:20.544Z,100.00
2023-05-05T03:45:47.462Z,100.00
2023-05-05T03:48:13.994Z,100.00
2023-05-05T03:50:45.041Z,100.00
2023-05-05T03:53:12.653Z,100.00
2023-05-05T03:55:39.507Z,100.00
2023-05-05T03:58:06.631Z,100.00
2023-05-05T04:00:33.193Z,100.00
2023-05-05T04:02:59.978Z,100.00
2023-05-05T04:05:26.886Z,100.00
2023-05-05T04:07:53.858Z,100.00
2023-05-05T04:10:21.379Z,100.00
2023-05-05T04:12:48.281Z,100.00
2023-05-05T04:15:14.862Z,100.00
2023-05-05T04:17:41.714Z,100.00
2023-05-05T04:20:09.531Z,100.00
2023-05-05T04:22:36.982Z,100.00
2023-05-05T04:25:04.605Z,100.00
2023-05-05T04:27:31.533Z,100.00
2023-05-05T04:29:59.365Z,100.00
2023-05-05T04:32:26.170Z,100.00
2023-05-05T04:34:53.447Z,100.00
2023-05-05T04:37:21.717Z,100.00
2023-05-05T04:39:48.433Z,100.00
2023-05-05T04:42:15.080Z,100.00
2023-05-05T04:44:41.734Z,100.00
2023-05-05T04:47:08.683Z,100.00
2023-05-05T04:49:35.869Z,100.00
2023-05-05T04:52:02.566Z,100.00
2023-05-05T04:54:29.321Z,100.00
2023-05-05T04:56:55.829Z,100.00
2023-05-05T04:59:22.399Z,100.00
2023-05-05T05:01:49.056Z,100.00
2023-05-05T05:04:18.575Z,100.00
2023-05-05T05:06:45.977Z,100.00
2023-05-05T05:09:13.208Z,100.00
2023-05-05T05:11:39.854Z,100.00
2023-05-05T05:14:06.908Z,100.00
2023-05-05T05:16:33.592Z,100.00
2023-05-05T05:19:01.606Z,100.00
2023-05-05T05:21:31.565Z,100.00
2023-05-05T05:23:58.929Z,100.00
2023-05-05T05:26:26.973Z,100.00
2023-05-05T05:28:53.522Z,100.00
2023-05-05T05:31:20.445Z,100.00
2023-05-05T05:33:47.148Z,100.00
2023-05-05T05:36:14.779Z,100.00
2023-05-05T05:38:41.746Z,100.00
2023-05-05T05:41:08.899Z,100.00
2023-05-05T05:43:37.309Z,100.00
2023-05-05T05:46:06.890Z,100.00
2023-05-05T05:48:34.988Z,100.00
2023-05-05T05:51:02.533Z,100.00
2023-05-05T05:53:29.731Z,100.00
2023-05-05T05:55:56.466Z,100.00
2023-05-05T05:58:23.676Z,100.00
2023-05-05T06:00:50.311Z,100.00
2023-05-05T06:03:17.206Z,100.00
2023-05-05T06:05:45.811Z,100.00
2023-05-05T06:08:13.826Z,100.00
2023-05-05T06:10:45.407Z,100.00
2023-05-05T06:13:15.742Z,100.00
2023-05-05T06:15:46.318Z,100.00
2023-05-05T06:18:14.064Z,100.00
2023-05-05T06:20:41.083Z,100.00
2023-05-05T06:23:07.700Z,100.00
2023-05-05T06:25:37.701Z,100.00
2023-05-05T06:28:05.466Z,100.00
2023-05-05T06:30:32.842Z,100.00
2023-05-05T06:32:59.711Z,100.00
2023-05-05T06:35:26.385Z,100.00
2023-05-05T06:37:53.087Z,100.00
2023-05-05T06:40:19.552Z,100.00
2023-05-05T06:42:46.255Z,100.00
2023-05-05T06:45:17.610Z,100.00
2023-05-05T06:47:44.603Z,100.00
2023-05-05T06:50:11.547Z,100.00
2023-05-05T06:52:38.231Z,100.00
2023-05-05T06:55:04.978Z,100.00
2023-05-05T06:57:31.569Z,100.00
2023-05-05T06:59:58.110Z,100.00
2023-05-05T07:02:26.708Z,100.00
2023-05-05T07:04:55.440Z,100.00
2023-05-05T07:07:22.339Z,100.00
2023-05-05T07:09:49.064Z,100.00
2023-05-05T07:12:15.495Z,100.00
2023-05-05T07:14:42.275Z,100.00
2023-05-05T07:17:08.812Z,100.00
2023-05-05T07:19:35.496Z,100.00
2023-05-05T07:22:02.057Z,100.00
2023-05-05T07:24:28.572Z,100.00
2023-05-05T07:26:55.748Z,100.00
2023-05-05T07:29:22.189Z,100.00
2023-05-05T07:31:49.032Z,100.00
2023-05-05T07:34:15.590Z,100.00
2023-05-05T07:36:42.207Z,99.94
2023-05-05T07:39:08.700Z,99.31
2023-05-05T07:41:35.461Z,99.67
2023-05-05T07:44:02.023Z,97.58
2023-05-05T07:46:28.830Z,98.42
2023-05-05T07:48:55.480Z,96.36
2023-05-05T07:51:22.280Z,95.49
2023-05-05T07:53:48.887Z,94.15
2023-05-05T07:56:15.733Z,90.37
2023-05-05T07:58:42.210Z,91.72
2023-05-05T08:01:11.044Z,91.53
2023-05-05T08:03:37.807Z,90.54
2023-05-05T08:06:10.580Z,89.97
2023-05-05T08:08:37.734Z,94.10
2023-05-05T08:11:04.288Z,92.17
2023-05-05T08:13:31.120Z,90.64
2023-05-05T08:15:57.761Z,86.61
2023-05-05T08:18:24.700Z,87.39
2023-05-05T08:20:51.973Z,87.71
2023-05-05T08:23:18.697Z,87.12
2023-05-05T08:25:45.278Z,86.00
2023-05-05T08:28:11.720Z,84.93
2023-05-05T08:30:38.780Z,85.16
2023-05-05T08:33:05.585Z,80.80
2023-05-05T08:35:32.265Z,81.51
2023-05-05T08:37:59.236Z,79.02
2023-05-05T08:40:31.923Z,78.10
2023-05-05T08:42:59.055Z,76.54
2023-05-05T08:45:27.863Z,76.02
2023-05-05T08:48:00.473Z,74.44
2023-05-05T08:50:29.220Z,72.59
2023-05-05T08:53:12.865Z,74.73
2023-05-05T08:55:52.368Z,72.93
2023-05-05T08:58:19.502Z,71.90
2023-05-05T09:00:46.637Z,73.75
2023-05-05T09:03:13.390Z,73.20
2023-05-05T09:05:42.244Z,73.20
2023-05-05T09:08:10.963Z,69.67
2023-05-05T09:10:41.019Z,68.59
2023-05-05T09:13:07.528Z,70.72
2023-05-05T09:15:34.673Z,70.05
2023-05-05T09:18:01.804Z,68.52
2023-05-05T09:20:36.588Z,64.72
2023-05-05T09:23:11.472Z,61.53
2023-05-05T09:25:38.605Z,61.88
2023-05-05T09:28:16.388Z,64.32
2023-05-05T09:30:44.874Z,64.22
2023-05-05T09:33:12.473Z,60.44
2023-05-05T09:35:53.663Z,57.60
2023-05-05T09:38:21.416Z,57.13
2023-05-05T09:40:49.944Z,58.11
2023-05-05T09:43:18.054Z,57.44
2023-05-05T09:45:44.961Z,55.43
2023-05-05T09:48:28.692Z,54.26
2023-05-05T09:50:56.921Z,52.14
2023-05-05T09:53:25.447Z,53.47
2023-05-05T09:55:56.271Z,52.90
2023-05-05T09:58:25.930Z,53.26
2023-05-05T10:00:53.613Z,52.40
2023-05-05T10:03:20.798Z,50.14
2023-05-05T10:05:55.753Z,47.78
2023-05-05T10:08:25.304Z,51.23
2023-05-05T10:10:54.144Z,49.67
2023-05-05T10:13:23.223Z,46.93
2023-05-05T10:15:51.835Z,47.42
2023-05-05T10:18:22.522Z,46.19
2023-05-05T10:21:02.286Z,48.12
2023-05-05T10:23:37.983Z,44.19
2023-05-05T10:26:11.697Z,43.75
2023-05-05T10:28:44.831Z,44.03
2023-05-05T10:31:25.633Z,43.81
2023-05-05T10:34:15.397Z,43.55
2023-05-05T10:36:42.937Z,42.42
2023-05-05T10:39:10.804Z,40.30
2023-05-05T10:41:37.989Z,39.77
2023-05-05T10:44:05.810Z,40.87
2023-05-05T10:46:32.680Z,39.56
2023-05-05T10:49:24.415Z,38.43
2023-05-05T10:52:21.617Z,39.75
2023-05-05T10:55:13.715Z,39.64
2023-05-05T10:57:42.685Z,39.67
2023-05-05T11:00:10.254Z,42.02
2023-05-05T11:02:37.549Z,43.21
2023-05-05T11:05:23.090Z,44.22
2023-05-05T11:07:52.969Z,44.78
2023-05-05T11:10:21.123Z,44.98
2023-05-05T11:12:54.106Z,45.22
2023-05-05T11:15:23.720Z,44.48
2023-05-05T11:17:50.677Z,45.15
2023-05-05T11:20:17.718Z,45.32
2023-05-05T11:23:21.469Z,45.47
2023-05-05T11:25:48.236Z,45.32
2023-05-05T11:28:17.040Z,43.81
2023-05-05T11:30:56.402Z,46.21
2023-05-05T11:33:30.683Z,44.92
2023-05-05T11:36:08.609Z,43.80
2023-05-05T11:38:55.584Z,43.65
2023-05-05T11:41:34.356Z,42.79
2023-05-05T11:44:17.496Z,41.06
2023-05-05T11:46:56.007Z,41.65
2023-05-05T11:49:33.972Z,41.75
2023-05-05T11:52:07.979Z,41.43
2023-05-05T11:54:35.906Z,42.75
2023-05-05T11:57:07.444Z,42.24
2023-05-05T11:59:37.412Z,43.87
2023-05-05T12:02:04.591Z,41.64
2023-05-05T12:04:31.785Z,40.45
2023-05-05T12:06:59.866Z,39.55
2023-05-05T12:09:27.204Z,40.40
2023-05-05T12:11:56.026Z,40.33
2023-05-05T12:14:23.890Z,38.72
2023-05-05T12:17:09.108Z,37.84
2023-05-05T12:19:36.148Z,39.21
2023-05-05T12:22:04.304Z,41.17
2023-05-05T12:24:30.963Z,39.55
2023-05-05T12:27:11.700Z,38.56
2023-05-05T12:29:38.220Z,39.81
2023-05-05T12:32:05.276Z,40.54
2023-05-05T12:34:32.284Z,41.59
2023-05-05T12:36:58.993Z,42.88
2023-05-05T12:39:36.342Z,42.63
2023-05-05T12:42:04.416Z,42.70
2023-05-05T12:44:38.234Z,43.13
2023-05-05T12:47:05.353Z,42.71
2023-05-05T12:49:34.905Z,41.79
2023-05-05T12:52:01.507Z,41.89
2023-05-05T12:54:29.680Z,42.44
2023-05-05T12:56:59.757Z,43.75
2023-05-05T12:59:27.452Z,41.86
2023-05-05T13:02:01.561Z,41.56
2023-05-05T13:04:28.935Z,43.20
2023-05-05T13:07:10.654Z,41.92
2023-05-05T13:09:37.399Z,40.66
2023-05-05T13:12:04.687Z,40.21
2023-05-05T13:14:31.850Z,39.31
2023-05-05T13:16:58.792Z,39.49
2023-05-05T13:19:25.362Z,39.91
2023-05-05T13:21:56.607Z,41.44
2023-05-05T13:24:38.051Z,40.70
2023-05-05T13:27:10.035Z,40.07
2023-05-05T13:29:42.090Z,40.35
2023-05-05T13:32:08.630Z,40.28
2023-05-05T13:34:35.360Z,41.01
2023-05-05T13:37:02.042Z,38.70
2023-05-05T13:39:30.965Z,37.55
2023-05-05T13:41:57.530Z,40.13
2023-05-05T13:44:24.298Z,41.82
2023-05-05T13:46:52.898Z,42.49
2023-05-05T13:49:20.126Z,42.10
2023-05-05T13:51:48.632Z,42.70
2023-05-05T13:54:15.313Z,41.87
2023-05-05T13:56:41.966Z,44.40
2023-05-05T13:59:09.212Z,44.89
2023-05-05T14:01:35.916Z,43.92
2023-05-05T14:04:05.099Z,43.64
2023-05-05T14:06:32.728Z,44.22
2023-05-05T14:08:59.683Z,43.97
2023-05-05T14:11:26.157Z,44.41
2023-05-05T14:13:52.708Z,43.32
2023-05-05T14:16:19.246Z,42.97
2023-05-05T14:18:45.748Z,45.33
2023-05-05T14:21:12.504Z,45.74
2023-05-05T14:23:39.226Z,45.29
2023-05-05T14:26:05.933Z,45.13
2023-05-05T14:28:32.502Z,44.65
2023-05-05T14:30:59.073Z,43.82
2023-05-05T14:33:25.909Z,43.13
2023-05-05T14:35:52.651Z,43.86
2023-05-05T14:38:19.237Z,43.42
2023-05-05T14:40:45.977Z,43.98
2023-05-05T14:43:12.490Z,42.67
2023-05-05T14:45:39.347Z,42.36
2023-05-05T14:48:05.974Z,42.87
2023-05-05T14:50:32.402Z,44.43
2023-05-05T14:52:59.125Z,44.78
2023-05-05T14:55:26.207Z,45.11
2023-05-05T14:57:52.810Z,44.70
2023-05-05T15:00:22.473Z,45.55
2023-05-05T15:02:49.188Z,45.17
2023-05-05T15:05:16.002Z,45.62
2023-05-05T15:07:42.743Z,46.97
2023-05-05T15:10:09.677Z,46.27
2023-05-05T15:12:36.349Z,47.19
2023-05-05T15:15:03.436Z,47.14
2023-05-05T15:17:30.828Z,47.25
2023-05-05T15:19:57.515Z,48.04
2023-05-05T15:22:24.105Z,48.99
2023-05-05T15:24:50.532Z,49.49
2023-05-05T15:27:18.263Z,49.21
2023-05-05T15:29:44.981Z,49.99
2023-05-05T15:32:11.606Z,51.75
2023-05-05T15:34:38.127Z,54.03
2023-05-05T15:37:04.810Z,60.26
2023-05-05T15:39:31.360Z,74.96
2023-05-05T15:41:59.630Z,96.13
2023-05-05T15:44:26.456Z,93.48
2023-05-05T15:46:52.951Z,90.63
2023-05-05T15:49:19.514Z,88.84
2023-05-05T15:51:47.492Z,89.29
2023-05-05T15:54:14.688Z,84.34
2023-05-05T15:56:41.243Z,82.78
2023-05-05T15:59:08.009Z,81.86
2023-05-05T16:01:36.174Z,88.96
2023-05-05T16:04:03.660Z,98.06
2023-05-05T16:06:30.416Z,91.84
2023-05-05T16:08:58.562Z,91.08
2023-05-05T16:11:28.457Z,86.44
2023-05-05T16:13:55.203Z,85.93
2023-05-05T16:16:21.820Z,81.31
2023-05-05T16:18:48.705Z,81.46
2023-05-05T16:21:15.371Z,82.94
2023-05-05T16:23:41.980Z,89.85
2023-05-05T16:26:08.498Z,92.65
2023-05-05T16:28:35.014Z,91.17
2023-05-05T16:31:02.290Z,98.04
2023-05-05T16:33:29.325Z,100.00
2023-05-05T16:35:55.977Z,100.00
2023-05-05T16:38:22.894Z,100.00
2023-05-05T16:40:49.629Z,100.00
2023-05-05T16:43:16.191Z,100.00
2023-05-05T16:45:43.609Z,100.00
2023-05-05T16:48:10.497Z,100.00
2023-05-05T16:50:37.079Z,100.00
2023-05-05T16:53:03.641Z,100.00
2023-05-05T16:55:30.206Z,100.00
2023-05-05T16:57:56.905Z,100.00
2023-05-05T17:00:23.627Z,100.00
2023-05-05T17:02:50.170Z,100.00
2023-05-05T17:05:17.762Z,100.00
2023-05-05T17:07:44.534Z,100.00
2023-05-05T17:10:11.243Z,100.00
2023-05-05T17:12:37.785Z,100.00
2023-05-05T17:15:04.940Z,100.00
2023-05-05T17:17:31.744Z,100.00
2023-05-05T17:19:58.276Z,94.90
2023-05-05T17:22:25.105Z,95.15
2023-05-05T17:24:51.837Z,95.16
2023-05-05T17:27:18.467Z,96.61
2023-05-05T17:29:45.223Z,97.56
2023-05-05T17:32:11.887Z,95.85
2023-05-05T17:34:38.648Z,89.85
2023-05-05T17:37:06.500Z,89.91
2023-05-05T17:39:33.095Z,92.93
2023-05-05T17:41:59.591Z,100.00
2023-05-05T17:44:26.040Z,100.00
2023-05-05T17:46:52.670Z,100.00
2023-05-05T17:49:19.281Z,100.00
2023-05-05T17:51:45.883Z,100.00
2023-05-05T17:54:12.449Z,100.00
2023-05-05T17:56:38.985Z,100.00
2023-05-05T17:59:05.482Z,100.00
2023-05-05T18:01:32.055Z,100.00
2023-05-05T18:03:58.674Z,100.00
2023-05-05T18:06:25.737Z,100.00
2023-05-05T18:08:52.870Z,100.00
2023-05-05T18:11:21.315Z,100.00
2023-05-05T18:16:43.736Z,100.00
2023-05-05T18:19:10.333Z,100.00
2023-05-05T18:21:36.802Z,100.00
2023-05-05T18:24:18.220Z,100.00
2023-05-05T18:26:53.002Z,100.00
2023-05-05T18:29:23.909Z,100.00
2023-05-05T18:31:52.845Z,100.00
2023-05-05T18:34:20.646Z,100.00
2023-05-05T18:36:48.008Z,100.00
2023-05-05T18:39:14.876Z,100.00
2023-05-05T18:41:41.410Z,100.00
2023-05-05T18:44:08.211Z,100.00
2023-05-05T18:46:34.822Z,100.00
2023-05-05T18:49:01.724Z,100.00
2023-05-05T18:51:28.525Z,100.00
2023-05-05T18:53:55.159Z,100.00
2023-05-05T18:56:21.713Z,100.00
2023-05-05T18:58:48.616Z,100.00
2023-05-05T19:01:16.045Z,100.00
2023-05-05T19:03:46.273Z,100.00
2023-05-05T19:06:12.909Z,100.00
2023-05-05T19:08:39.489Z,100.00
2023-05-05T19:11:06.326Z,100.00
2023-05-05T19:13:32.743Z,100.00
2023-05-05T19:15:59.425Z,100.00
2023-05-05T19:18:26.738Z,100.00
2023-05-05T19:20:53.174Z,100.00
2023-05-05T19:23:19.595Z,100.00
2023-05-05T19:25:46.437Z,100.00
2023-05-05T19:28:12.905Z,100.00
2023-05-05T19:30:39.332Z,100.00
2023-05-05T19:33:06.043Z,100.00
2023-05-05T19:35:32.582Z,100.00
2023-05-05T19:38:02.090Z,100.00
2023-05-05T19:40:34.380Z,100.00
2023-05-05T19:43:03.339Z,100.00
2023-05-05T19:45:33.742Z,100.00
2023-05-05T19:48:01.404Z,100.00
2023-05-05T19:50:30.208Z,100.00
2023-05-05T19:52:57.186Z,100.00
2023-05-05T19:55:24.363Z,100.00
2023-05-05T19:57:50.855Z,100.00
2023-05-05T20:00:18.322Z,100.00
2023-05-05T20:02:45.231Z,100.00
2023-05-05T20:05:13.979Z,100.00
2023-05-05T20:07:41.914Z,100.00
2023-05-05T20:10:09.549Z,100.00
2023-05-05T20:12:36.328Z,100.00
2023-05-05T20:15:03.179Z,100.00
2023-05-05T20:17:29.663Z,100.00
2023-05-05T20:19:57.569Z,100.00
2023-05-05T20:22:26.542Z,100.00
2023-05-05T20:24:53.517Z,100.00
2023-05-05T20:27:21.002Z,100.00
2023-05-05T20:29:48.111Z,100.00
2023-05-05T20:32:15.699Z,100.00
2023-05-05T20:34:42.208Z,100.00
2023-05-05T20:37:09.161Z,100.00
2023-05-05T20:39:36.542Z,100.00
2023-05-05T20:42:03.205Z,100.00
2023-05-05T20:44:29.903Z,100.00
2023-05-05T20:46:56.401Z,100.00
2023-05-05T20:49:22.880Z,100.00
2023-05-05T20:51:49.533Z,100.00
2023-05-05T20:54:16.019Z,100.00
2023-05-05T20:56:42.644Z,100.00
2023-05-05T20:59:09.527Z,100.00
2023-05-05T21:01:36.129Z,100.00
2023-05-05T21:04:02.769Z,100.00
2023-05-05T21:06:29.415Z,100.00
2023-05-05T21:08:56.215Z,100.00
2023-05-05T21:11:22.688Z,100.00
2023-05-05T21:13:49.180Z,100.00
2023-05-05T21:16:16.118Z,100.00
2023-05-05T21:18:46.516Z,100.00
2023-05-05T21:21:13.250Z,100.00
2023-05-05T21:23:39.818Z,100.00
2023-05-05T21:26:06.371Z,100.00
2023-05-05T21:28:32.849Z,100.00
2023-05-05T21:31:20.336Z,100.00
2023-05-05T21:33:46.308Z,100.00
2023-05-05T21:36:15.130Z,100.00
2023-05-05T21:38:41.712Z,100.00
2023-05-05T21:41:08.349Z,100.00
2023-05-05T21:43:35.015Z,100.00
2023-05-05T21:46:02.831Z,100.00
2023-05-05T21:48:30.993Z,100.00
2023-05-05T21:50:57.646Z,100.00
2023-05-05T21:53:24.136Z,100.00
2023-05-05T21:55:50.932Z,100.00
2023-05-05T21:58:17.423Z,100.00
2023-05-05T22:00:44.906Z,100.00
2023-05-05T22:03:11.511Z,100.00
2023-05-05T22:05:38.241Z,100.00
2023-05-05T22:08:04.700Z,100.00
2023-05-05T22:10:31.244Z,100.00
2023-05-05T22:13:00.594Z,100.00
2023-05-05T22:15:32.618Z,100.00
2023-05-05T22:18:02.637Z,100.00
2023-05-05T22:20:29.632Z,100.00
2023-05-05T22:22:56.501Z,100.00
2023-05-05T22:25:23.268Z,100.00
2023-05-05T22:27:49.801Z,100.00
2023-05-05T22:30:16.193Z,100.00
2023-05-05T22:32:43.478Z,100.00
2023-05-05T22:35:10.358Z,100.00
2023-05-05T22:37:37.217Z,100.00
2023-05-05T22:40:04.168Z,100.00
2023-05-05T22:42:30.974Z,100.00
2023-05-05T22:44:57.591Z,100.00
2023-05-05T22:47:24.045Z,100.00
2023-05-05T22:49:50.972Z,100.00
2023-05-05T22:52:17.888Z,100.00
2023-05-05T22:54:44.386Z,100.00
2023-05-05T22:57:10.916Z,100.00
2023-05-05T22:59:37.549Z,100.00
2023-05-05T23:02:04.238Z,100.00
2023-05-05T23:04:30.747Z,100.00
2023-05-05T23:06:57.603Z,100.00
2023-05-05T23:09:24.152Z,100.00
2023-05-05T23:11:50.741Z,100.00
2023-05-05T23:14:19.461Z,100.00
2023-05-05T23:16:46.361Z,100.00
2023-05-05T23:19:13.696Z,100.00
2023-05-05T23:21:51.984Z,100.00
2023-05-05T23:24:20.538Z,100.00
2023-05-05T23:26:46.975Z,100.00
2023-05-05T23:29:13.390Z,100.00
2023-05-05T23:31:39.908Z,100.00
2023-05-05T23:34:06.579Z,100.00
2023-05-05T23:36:33.239Z,100.00
2023-05-05T23:38:59.766Z,100.00
2023-05-05T23:41:26.491Z,100.00
2023-05-05T23:43:52.996Z,100.00
2023-05-05T23:46:19.550Z,100.00
2023-05-05T23:48:46.017Z,100.00
2023-05-05T23:51:12.462Z,100.00
2023-05-05T23:53:39.179Z,100.00
2023-05-05T23:56:06.064Z,100.00
2023-05-05T23:58:32.696Z,100.00
